sensor_id;sensor_type;location;lat;lon;timestamp;P1;durP1;ratioP1;P2;durP2;ratioP2
24443;SDS011;13346;50.984;5.822;2023-02-11T00:01:42;15.30;;;11.20;;
24443;SDS011;13346;50.984;5.822;2023-02-11T00:04:09;20.67;;;16.53;;
24443;SDS011;13346;50.984;5.822;2023-02-11T00:06:36;22.97;;;14.80;;
24443;SDS011;13346;50.984;5.822;2023-02-11T00:09:04;17.67;;;10.90;;
24443;SDS011;13346;50.984;5.822;2023-02-11T00:11:31;20.97;;;15.80;;
24443;SDS011;13346;50.984;5.822;2023-02-11T00:13:59;16.70;;;13.03;;
24443;SDS011;13346;50.984;5.822;2023-02-11T00:16:28;27.23;;;16.17;;
24443;SDS011;13346;50.984;5.822;2023-02-11T00:18:57;26.27;;;18.23;;
24443;SDS011;13346;50.984;5.822;2023-02-11T00:21:25;25.50;;;17.43;;
24443;SDS011;13346;50.984;5.822;2023-02-11T00:23:53;16.87;;;13.90;;
24443;SDS011;13346;50.984;5.822;2023-02-11T00:26:21;22.70;;;13.07;;
24443;SDS011;13346;50.984;5.822;2023-02-11T00:28:50;23.03;;;16.77;;
24443;SDS011;13346;50.984;5.822;2023-02-11T00:31:18;27.77;;;17.57;;
24443;SDS011;13346;50.984;5.822;2023-02-11T00:33:47;26.47;;;19.50;;
24443;SDS011;13346;50.984;5.822;2023-02-11T00:36:16;25.73;;;16.23;;
24443;SDS011;13346;50.984;5.822;2023-02-11T00:38:45;25.93;;;18.30;;
24443;SDS011;13346;50.984;5.822;2023-02-11T00:41:14;19.07;;;14.83;;
24443;SDS011;13346;50.984;5.822;2023-02-11T00:43:41;24.70;;;17.13;;
24443;SDS011;13346;50.984;5.822;2023-02-11T00:46:08;27.60;;;19.40;;
24443;SDS011;13346;50.984;5.822;2023-02-11T00:48:36;23.53;;;17.03;;
24443;SDS011;13346;50.984;5.822;2023-02-11T00:51:03;27.23;;;17.83;;
24443;SDS011;13346;50.984;5.822;2023-02-11T00:53:33;24.63;;;18.60;;
24443;SDS011;13346;50.984;5.822;2023-02-11T00:56:00;22.80;;;17.63;;
24443;SDS011;13346;50.984;5.822;2023-02-11T00:58:27;25.37;;;19.43;;
24443;SDS011;13346;50.984;5.822;2023-02-11T01:00:55;19.57;;;12.70;;
24443;SDS011;13346;50.984;5.822;2023-02-11T01:03:22;26.17;;;18.43;;
24443;SDS011;13346;50.984;5.822;2023-02-11T01:05:49;20.87;;;16.67;;
24443;SDS011;13346;50.984;5.822;2023-02-11T01:08:17;26.23;;;17.87;;
24443;SDS011;13346;50.984;5.822;2023-02-11T01:10:48;25.33;;;16.47;;
24443;SDS011;13346;50.984;5.822;2023-02-11T01:13:19;19.80;;;16.60;;
24443;SDS011;13346;50.984;5.822;2023-02-11T01:15:47;17.63;;;15.47;;
24443;SDS011;13346;50.984;5.822;2023-02-11T01:18:14;17.47;;;13.67;;
24443;SDS011;13346;50.984;5.822;2023-02-11T01:20:41;27.03;;;18.33;;
24443;SDS011;13346;50.984;5.822;2023-02-11T01:23:09;23.20;;;15.50;;
24443;SDS011;13346;50.984;5.822;2023-02-11T01:25:36;27.20;;;17.07;;
24443;SDS011;13346;50.984;5.822;2023-02-11T01:28:05;24.70;;;16.20;;
24443;SDS011;13346;50.984;5.822;2023-02-11T01:30:32;23.97;;;17.70;;
24443;SDS011;13346;50.984;5.822;2023-02-11T01:32:59;23.37;;;17.03;;
24443;SDS011;13346;50.984;5.822;2023-02-11T01:35:26;19.80;;;16.50;;
24443;SDS011;13346;50.984;5.822;2023-02-11T01:37:53;25.27;;;17.80;;
24443;SDS011;13346;50.984;5.822;2023-02-11T01:40:21;25.33;;;15.77;;
24443;SDS011;13346;50.984;5.822;2023-02-11T01:42:48;26.67;;;16.90;;
24443;SDS011;13346;50.984;5.822;2023-02-11T01:48:19;24.53;;;17.60;;
24443;SDS011;13346;50.984;5.822;2023-02-11T01:50:51;22.77;;;15.97;;
24443;SDS011;13346;50.984;5.822;2023-02-11T01:53:22;25.17;;;16.57;;
24443;SDS011;13346;50.984;5.822;2023-02-11T01:56:07;21.93;;;16.40;;
24443;SDS011;13346;50.984;5.822;2023-02-11T01:58:54;22.73;;;17.53;;
24443;SDS011;13346;50.984;5.822;2023-02-11T02:01:32;27.00;;;17.20;;
24443;SDS011;13346;50.984;5.822;2023-02-11T02:04:00;29.73;;;16.07;;
24443;SDS011;13346;50.984;5.822;2023-02-11T02:06:31;31.10;;;18.93;;
24443;SDS011;13346;50.984;5.822;2023-02-11T02:09:02;27.57;;;17.47;;
24443;SDS011;13346;50.984;5.822;2023-02-11T02:11:32;24.27;;;16.13;;
24443;SDS011;13346;50.984;5.822;2023-02-11T02:14:00;27.67;;;18.17;;
24443;SDS011;13346;50.984;5.822;2023-02-11T02:16:29;14.83;;;11.53;;
24443;SDS011;13346;50.984;5.822;2023-02-11T02:19:04;24.83;;;15.37;;
24443;SDS011;13346;50.984;5.822;2023-02-11T02:21:56;20.80;;;16.43;;
24443;SDS011;13346;50.984;5.822;2023-02-11T02:25:01;22.77;;;15.47;;
24443;SDS011;13346;50.984;5.822;2023-02-11T02:27:52;31.67;;;18.47;;
24443;SDS011;13346;50.984;5.822;2023-02-11T02:30:34;30.63;;;19.93;;
24443;SDS011;13346;50.984;5.822;2023-02-11T02:33:20;18.73;;;13.93;;
24443;SDS011;13346;50.984;5.822;2023-02-11T02:35:57;21.00;;;15.40;;
24443;SDS011;13346;50.984;5.822;2023-02-11T02:38:34;27.13;;;17.70;;
24443;SDS011;13346;50.984;5.822;2023-02-11T02:41:07;20.70;;;15.03;;
24443;SDS011;13346;50.984;5.822;2023-02-11T02:43:36;19.37;;;15.20;;
24443;SDS011;13346;50.984;5.822;2023-02-11T02:46:10;19.27;;;11.73;;
24443;SDS011;13346;50.984;5.822;2023-02-11T02:48:40;23.27;;;14.50;;
24443;SDS011;13346;50.984;5.822;2023-02-11T02:51:10;31.17;;;14.27;;
24443;SDS011;13346;50.984;5.822;2023-02-11T02:53:58;12.37;;;10.37;;
24443;SDS011;13346;50.984;5.822;2023-02-11T02:56:43;18.30;;;11.17;;
24443;SDS011;13346;50.984;5.822;2023-02-11T02:59:22;12.20;;;10.20;;
24443;SDS011;13346;50.984;5.822;2023-02-11T03:01:56;17.20;;;13.60;;
24443;SDS011;13346;50.984;5.822;2023-02-11T03:04:32;14.67;;;11.97;;
24443;SDS011;13346;50.984;5.822;2023-02-11T03:07:04;21.60;;;16.17;;
24443;SDS011;13346;50.984;5.822;2023-02-11T03:09:38;23.27;;;8.67;;
24443;SDS011;13346;50.984;5.822;2023-02-11T03:12:10;12.40;;;8.57;;
24443;SDS011;13346;50.984;5.822;2023-02-11T03:14:39;18.60;;;12.73;;
24443;SDS011;13346;50.984;5.822;2023-02-11T03:17:07;19.37;;;14.30;;
24443;SDS011;13346;50.984;5.822;2023-02-11T03:19:37;21.23;;;13.63;;
24443;SDS011;13346;50.984;5.822;2023-02-11T03:22:09;20.67;;;12.77;;
24443;SDS011;13346;50.984;5.822;2023-02-11T03:24:42;25.50;;;15.77;;
24443;SDS011;13346;50.984;5.822;2023-02-11T03:27:11;21.97;;;14.50;;
24443;SDS011;13346;50.984;5.822;2023-02-11T03:29:46;17.70;;;13.07;;
24443;SDS011;13346;50.984;5.822;2023-02-11T03:32:20;18.43;;;14.23;;
24443;SDS011;13346;50.984;5.822;2023-02-11T03:34:53;15.07;;;10.83;;
24443;SDS011;13346;50.984;5.822;2023-02-11T03:37:24;17.33;;;13.47;;
24443;SDS011;13346;50.984;5.822;2023-02-11T03:39:55;19.30;;;11.63;;
24443;SDS011;13346;50.984;5.822;2023-02-11T03:42:35;16.77;;;13.20;;
24443;SDS011;13346;50.984;5.822;2023-02-11T03:45:08;22.47;;;13.70;;
24443;SDS011;13346;50.984;5.822;2023-02-11T03:47:39;13.60;;;9.67;;
24443;SDS011;13346;50.984;5.822;2023-02-11T03:50:12;17.97;;;13.87;;
24443;SDS011;13346;50.984;5.822;2023-02-11T03:52:41;13.10;;;9.77;;
24443;SDS011;13346;50.984;5.822;2023-02-11T03:55:10;19.90;;;13.10;;
24443;SDS011;13346;50.984;5.822;2023-02-11T03:57:38;15.50;;;11.30;;
24443;SDS011;13346;50.984;5.822;2023-02-11T04:00:06;15.53;;;9.97;;
24443;SDS011;13346;50.984;5.822;2023-02-11T04:02:35;20.53;;;11.07;;
24443;SDS011;13346;50.984;5.822;2023-02-11T04:05:03;18.17;;;12.50;;
24443;SDS011;13346;50.984;5.822;2023-02-11T04:07:33;18.27;;;11.27;;
24443;SDS011;13346;50.984;5.822;2023-02-11T04:10:01;17.10;;;10.83;;
24443;SDS011;13346;50.984;5.822;2023-02-11T04:12:28;16.53;;;12.43;;
24443;SDS011;13346;50.984;5.822;2023-02-11T04:14:58;9.67;;;8.57;;
24443;SDS011;13346;50.984;5.822;2023-02-11T04:17:25;17.13;;;12.70;;
24443;SDS011;13346;50.984;5.822;2023-02-11T04:19:52;15.57;;;11.07;;
24443;SDS011;13346;50.984;5.822;2023-02-11T04:22:20;17.17;;;10.60;;
24443;SDS011;13346;50.984;5.822;2023-02-11T04:24:48;13.67;;;10.43;;
24443;SDS011;13346;50.984;5.822;2023-02-11T04:27:15;16.27;;;11.27;;
24443;SDS011;13346;50.984;5.822;2023-02-11T04:29:43;15.33;;;13.17;;
24443;SDS011;13346;50.984;5.822;2023-02-11T04:32:10;14.97;;;12.07;;
24443;SDS011;13346;50.984;5.822;2023-02-11T04:34:38;18.30;;;12.03;;
24443;SDS011;13346;50.984;5.822;2023-02-11T04:37:05;14.57;;;11.77;;
24443;SDS011;13346;50.984;5.822;2023-02-11T04:39:33;22.50;;;13.87;;
24443;SDS011;13346;50.984;5.822;2023-02-11T04:42:02;14.03;;;12.60;;
24443;SDS011;13346;50.984;5.822;2023-02-11T04:44:30;15.23;;;13.30;;
24443;SDS011;13346;50.984;5.822;2023-02-11T04:46:57;9.77;;;8.00;;
24443;SDS011;13346;50.984;5.822;2023-02-11T04:49:24;19.53;;;12.70;;
24443;SDS011;13346;50.984;5.822;2023-02-11T04:51:51;14.37;;;9.63;;
24443;SDS011;13346;50.984;5.822;2023-02-11T04:54:19;19.07;;;12.47;;
24443;SDS011;13346;50.984;5.822;2023-02-11T04:56:46;18.73;;;13.23;;
24443;SDS011;13346;50.984;5.822;2023-02-11T04:59:15;15.20;;;10.80;;
24443;SDS011;13346;50.984;5.822;2023-02-11T05:01:42;17.23;;;12.43;;
24443;SDS011;13346;50.984;5.822;2023-02-11T05:04:09;13.67;;;10.60;;
24443;SDS011;13346;50.984;5.822;2023-02-11T05:06:37;23.40;;;14.07;;
24443;SDS011;13346;50.984;5.822;2023-02-11T05:09:04;21.47;;;12.30;;
24443;SDS011;13346;50.984;5.822;2023-02-11T05:11:31;21.90;;;12.93;;
24443;SDS011;13346;50.984;5.822;2023-02-11T05:14:00;12.90;;;10.40;;
24443;SDS011;13346;50.984;5.822;2023-02-11T05:16:29;13.33;;;9.30;;
24443;SDS011;13346;50.984;5.822;2023-02-11T05:18:56;18.20;;;13.30;;
24443;SDS011;13346;50.984;5.822;2023-02-11T05:21:24;16.03;;;13.10;;
24443;SDS011;13346;50.984;5.822;2023-02-11T05:23:51;20.97;;;13.90;;
24443;SDS011;13346;50.984;5.822;2023-02-11T05:26:18;21.60;;;13.47;;
24443;SDS011;13346;50.984;5.822;2023-02-11T05:28:45;21.17;;;13.87;;
24443;SDS011;13346;50.984;5.822;2023-02-11T05:31:13;22.60;;;13.30;;
24443;SDS011;13346;50.984;5.822;2023-02-11T05:33:42;15.87;;;9.63;;
24443;SDS011;13346;50.984;5.822;2023-02-11T05:36:10;21.30;;;12.70;;
24443;SDS011;13346;50.984;5.822;2023-02-11T05:38:40;28.00;;;15.47;;
24443;SDS011;13346;50.984;5.822;2023-02-11T05:41:07;20.83;;;13.00;;
24443;SDS011;13346;50.984;5.822;2023-02-11T05:43:35;18.53;;;15.57;;
24443;SDS011;13346;50.984;5.822;2023-02-11T05:46:03;12.13;;;10.80;;
24443;SDS011;13346;50.984;5.822;2023-02-11T05:48:30;24.60;;;13.63;;
24443;SDS011;13346;50.984;5.822;2023-02-11T05:50:59;21.70;;;12.13;;
24443;SDS011;13346;50.984;5.822;2023-02-11T05:53:27;23.60;;;14.63;;
24443;SDS011;13346;50.984;5.822;2023-02-11T05:55:54;18.70;;;12.13;;
24443;SDS011;13346;50.984;5.822;2023-02-11T05:58:21;18.37;;;14.67;;
24443;SDS011;13346;50.984;5.822;2023-02-11T06:00:48;21.23;;;14.50;;
24443;SDS011;13346;50.984;5.822;2023-02-11T06:03:15;20.07;;;13.40;;
24443;SDS011;13346;50.984;5.822;2023-02-11T06:05:43;19.83;;;14.90;;
24443;SDS011;13346;50.984;5.822;2023-02-11T06:08:12;21.40;;;14.67;;
24443;SDS011;13346;50.984;5.822;2023-02-11T06:10:39;20.10;;;13.40;;
24443;SDS011;13346;50.984;5.822;2023-02-11T06:13:09;40.07;;;23.73;;
24443;SDS011;13346;50.984;5.822;2023-02-11T06:15:36;36.30;;;23.50;;
24443;SDS011;13346;50.984;5.822;2023-02-11T06:18:03;25.80;;;16.43;;
24443;SDS011;13346;50.984;5.822;2023-02-11T06:20:30;22.33;;;12.77;;
24443;SDS011;13346;50.984;5.822;2023-02-11T06:22:58;26.10;;;16.27;;
24443;SDS011;13346;50.984;5.822;2023-02-11T06:25:26;27.00;;;15.33;;
24443;SDS011;13346;50.984;5.822;2023-02-11T06:27:54;22.23;;;10.43;;
24443;SDS011;13346;50.984;5.822;2023-02-11T06:30:21;23.07;;;13.90;;
24443;SDS011;13346;50.984;5.822;2023-02-11T06:32:48;20.40;;;12.43;;
24443;SDS011;13346;50.984;5.822;2023-02-11T06:35:15;25.87;;;16.40;;
24443;SDS011;13346;50.984;5.822;2023-02-11T06:37:43;25.83;;;16.63;;
24443;SDS011;13346;50.984;5.822;2023-02-11T06:40:11;24.37;;;12.00;;
24443;SDS011;13346;50.984;5.822;2023-02-11T06:42:39;23.43;;;16.27;;
24443;SDS011;13346;50.984;5.822;2023-02-11T06:45:07;25.40;;;14.80;;
24443;SDS011;13346;50.984;5.822;2023-02-11T06:47:35;26.33;;;15.97;;
24443;SDS011;13346;50.984;5.822;2023-02-11T06:50:02;26.10;;;15.53;;
24443;SDS011;13346;50.984;5.822;2023-02-11T06:52:30;20.47;;;14.47;;
24443;SDS011;13346;50.984;5.822;2023-02-11T06:54:57;22.83;;;15.20;;
24443;SDS011;13346;50.984;5.822;2023-02-11T06:57:25;26.23;;;16.10;;
24443;SDS011;13346;50.984;5.822;2023-02-11T06:59:53;26.70;;;15.60;;
24443;SDS011;13346;50.984;5.822;2023-02-11T07:02:21;20.57;;;12.60;;
24443;SDS011;13346;50.984;5.822;2023-02-11T07:04:48;20.23;;;13.70;;
24443;SDS011;13346;50.984;5.822;2023-02-11T07:07:15;23.83;;;14.63;;
24443;SDS011;13346;50.984;5.822;2023-02-11T07:09:43;13.37;;;10.30;;
24443;SDS011;13346;50.984;5.822;2023-02-11T07:12:10;23.23;;;15.07;;
24443;SDS011;13346;50.984;5.822;2023-02-11T07:14:38;27.80;;;15.83;;
24443;SDS011;13346;50.984;5.822;2023-02-11T07:17:07;23.77;;;15.67;;
24443;SDS011;13346;50.984;5.822;2023-02-11T07:19:34;27.93;;;16.43;;
24443;SDS011;13346;50.984;5.822;2023-02-11T07:22:01;27.67;;;14.73;;
24443;SDS011;13346;50.984;5.822;2023-02-11T07:24:28;26.00;;;14.43;;
24443;SDS011;13346;50.984;5.822;2023-02-11T07:26:55;27.10;;;17.77;;
24443;SDS011;13346;50.984;5.822;2023-02-11T07:29:23;26.60;;;15.57;;
24443;SDS011;13346;50.984;5.822;2023-02-11T07:31:50;26.40;;;16.33;;
24443;SDS011;13346;50.984;5.822;2023-02-11T07:34:19;28.53;;;17.97;;
24443;SDS011;13346;50.984;5.822;2023-02-11T07:36:46;24.83;;;16.67;;
24443;SDS011;13346;50.984;5.822;2023-02-11T07:39:14;38.47;;;20.50;;
24443;SDS011;13346;50.984;5.822;2023-02-11T07:41:41;23.70;;;17.37;;
24443;SDS011;13346;50.984;5.822;2023-02-11T07:44:11;21.77;;;14.63;;
24443;SDS011;13346;50.984;5.822;2023-02-11T07:46:39;24.53;;;16.70;;
24443;SDS011;13346;50.984;5.822;2023-02-11T07:49:09;31.13;;;17.63;;
24443;SDS011;13346;50.984;5.822;2023-02-11T07:51:38;30.93;;;15.83;;
24443;SDS011;13346;50.984;5.822;2023-02-11T07:54:05;30.13;;;18.53;;
24443;SDS011;13346;50.984;5.822;2023-02-11T07:56:33;23.73;;;15.17;;
24443;SDS011;13346;50.984;5.822;2023-02-11T07:59:00;27.13;;;16.50;;
24443;SDS011;13346;50.984;5.822;2023-02-11T08:01:29;20.03;;;13.13;;
24443;SDS011;13346;50.984;5.822;2023-02-11T08:03:57;28.30;;;15.47;;
24443;SDS011;13346;50.984;5.822;2023-02-11T08:06:26;28.93;;;18.47;;
24443;SDS011;13346;50.984;5.822;2023-02-11T08:08:57;44.00;;;20.47;;
24443;SDS011;13346;50.984;5.822;2023-02-11T08:11:28;30.43;;;17.53;;
24443;SDS011;13346;50.984;5.822;2023-02-11T08:13:56;31.90;;;19.03;;
24443;SDS011;13346;50.984;5.822;2023-02-11T08:16:24;27.33;;;13.43;;
24443;SDS011;13346;50.984;5.822;2023-02-11T08:18:54;33.33;;;18.83;;
24443;SDS011;13346;50.984;5.822;2023-02-11T08:21:22;33.30;;;19.63;;
24443;SDS011;13346;50.984;5.822;2023-02-11T08:23:50;29.77;;;19.40;;
24443;SDS011;13346;50.984;5.822;2023-02-11T08:26:20;31.17;;;17.83;;
24443;SDS011;13346;50.984;5.822;2023-02-11T08:28:49;29.20;;;17.40;;
24443;SDS011;13346;50.984;5.822;2023-02-11T08:31:17;29.67;;;17.30;;
24443;SDS011;13346;50.984;5.822;2023-02-11T08:33:46;30.43;;;16.90;;
24443;SDS011;13346;50.984;5.822;2023-02-11T08:36:15;28.37;;;16.30;;
24443;SDS011;13346;50.984;5.822;2023-02-11T08:38:43;36.67;;;20.60;;
24443;SDS011;13346;50.984;5.822;2023-02-11T08:41:11;32.33;;;20.20;;
24443;SDS011;13346;50.984;5.822;2023-02-11T08:43:41;57.73;;;34.07;;
24443;SDS011;13346;50.984;5.822;2023-02-11T08:46:11;33.17;;;22.17;;
24443;SDS011;13346;50.984;5.822;2023-02-11T08:48:39;32.57;;;20.87;;
24443;SDS011;13346;50.984;5.822;2023-02-11T08:51:07;43.17;;;23.30;;
24443;SDS011;13346;50.984;5.822;2023-02-11T08:53:36;25.27;;;16.77;;
24443;SDS011;13346;50.984;5.822;2023-02-11T08:56:04;39.27;;;22.83;;
24443;SDS011;13346;50.984;5.822;2023-02-11T08:58:32;37.77;;;22.57;;
24443;SDS011;13346;50.984;5.822;2023-02-11T09:01:00;54.00;;;25.23;;
24443;SDS011;13346;50.984;5.822;2023-02-11T09:03:33;53.10;;;28.50;;
24443;SDS011;13346;50.984;5.822;2023-02-11T09:06:03;43.77;;;23.47;;
24443;SDS011;13346;50.984;5.822;2023-02-11T09:08:32;36.47;;;21.20;;
24443;SDS011;13346;50.984;5.822;2023-02-11T09:11:00;36.07;;;23.03;;
24443;SDS011;13346;50.984;5.822;2023-02-11T09:13:27;57.73;;;30.97;;
24443;SDS011;13346;50.984;5.822;2023-02-11T09:15:55;38.00;;;21.67;;
24443;SDS011;13346;50.984;5.822;2023-02-11T09:18:24;37.57;;;21.57;;
24443;SDS011;13346;50.984;5.822;2023-02-11T09:20:52;34.90;;;21.47;;
24443;SDS011;13346;50.984;5.822;2023-02-11T09:23:19;39.13;;;23.47;;
24443;SDS011;13346;50.984;5.822;2023-02-11T09:25:47;40.27;;;22.43;;
24443;SDS011;13346;50.984;5.822;2023-02-11T09:28:14;40.23;;;23.73;;
24443;SDS011;13346;50.984;5.822;2023-02-11T09:30:41;35.93;;;20.87;;
24443;SDS011;13346;50.984;5.822;2023-02-11T09:33:09;37.50;;;22.57;;
24443;SDS011;13346;50.984;5.822;2023-02-11T09:35:37;30.60;;;22.33;;
24443;SDS011;13346;50.984;5.822;2023-02-11T09:38:04;42.23;;;22.70;;
24443;SDS011;13346;50.984;5.822;2023-02-11T09:40:32;48.20;;;26.10;;
24443;SDS011;13346;50.984;5.822;2023-02-11T09:43:00;48.13;;;27.87;;
24443;SDS011;13346;50.984;5.822;2023-02-11T09:45:33;35.37;;;21.40;;
24443;SDS011;13346;50.984;5.822;2023-02-11T09:48:01;27.40;;;14.80;;
24443;SDS011;13346;50.984;5.822;2023-02-11T09:50:37;33.17;;;19.07;;
24443;SDS011;13346;50.984;5.822;2023-02-11T09:53:10;32.70;;;20.43;;
24443;SDS011;13346;50.984;5.822;2023-02-11T09:55:41;34.67;;;21.20;;
24443;SDS011;13346;50.984;5.822;2023-02-11T09:58:11;36.13;;;20.23;;
24443;SDS011;13346;50.984;5.822;2023-02-11T10:00:42;32.33;;;20.80;;
24443;SDS011;13346;50.984;5.822;2023-02-11T10:03:32;34.17;;;20.80;;
24443;SDS011;13346;50.984;5.822;2023-02-11T10:06:26;37.37;;;22.07;;
24443;SDS011;13346;50.984;5.822;2023-02-11T10:09:07;33.87;;;22.10;;
24443;SDS011;13346;50.984;5.822;2023-02-11T10:11:48;41.13;;;25.20;;
24443;SDS011;13346;50.984;5.822;2023-02-11T10:14:27;39.00;;;20.97;;
24443;SDS011;13346;50.984;5.822;2023-02-11T10:17:11;33.93;;;20.37;;
24443;SDS011;13346;50.984;5.822;2023-02-11T10:19:49;36.60;;;20.93;;
24443;SDS011;13346;50.984;5.822;2023-02-11T10:22:29;26.97;;;18.53;;
24443;SDS011;13346;50.984;5.822;2023-02-11T10:25:05;30.70;;;18.27;;
24443;SDS011;13346;50.984;5.822;2023-02-11T10:27:42;34.73;;;20.27;;
24443;SDS011;13346;50.984;5.822;2023-02-11T10:30:14;36.67;;;20.80;;
24443;SDS011;13346;50.984;5.822;2023-02-11T10:32:48;35.93;;;21.23;;
24443;SDS011;13346;50.984;5.822;2023-02-11T10:35:20;36.00;;;21.23;;
24443;SDS011;13346;50.984;5.822;2023-02-11T10:37:50;35.00;;;21.80;;
24443;SDS011;13346;50.984;5.822;2023-02-11T10:40:18;29.53;;;17.93;;
24443;SDS011;13346;50.984;5.822;2023-02-11T10:42:47;34.93;;;22.10;;
24443;SDS011;13346;50.984;5.822;2023-02-11T10:45:18;35.67;;;21.17;;
24443;SDS011;13346;50.984;5.822;2023-02-11T10:47:50;37.57;;;22.17;;
24443;SDS011;13346;50.984;5.822;2023-02-11T10:50:21;36.63;;;20.97;;
24443;SDS011;13346;50.984;5.822;2023-02-11T10:52:51;32.50;;;20.43;;
24443;SDS011;13346;50.984;5.822;2023-02-11T10:55:25;47.00;;;23.17;;
24443;SDS011;13346;50.984;5.822;2023-02-11T10:57:54;34.37;;;21.87;;
24443;SDS011;13346;50.984;5.822;2023-02-11T11:00:32;36.63;;;22.67;;
24443;SDS011;13346;50.984;5.822;2023-02-11T11:03:04;33.27;;;20.50;;
24443;SDS011;13346;50.984;5.822;2023-02-11T11:05:45;34.10;;;20.07;;
24443;SDS011;13346;50.984;5.822;2023-02-11T11:08:15;30.57;;;19.77;;
24443;SDS011;13346;50.984;5.822;2023-02-11T11:10:44;36.57;;;22.17;;
24443;SDS011;13346;50.984;5.822;2023-02-11T11:13:23;34.47;;;19.40;;
24443;SDS011;13346;50.984;5.822;2023-02-11T11:18:43;34.97;;;21.93;;
24443;SDS011;13346;50.984;5.822;2023-02-11T11:21:12;35.80;;;22.33;;
24443;SDS011;13346;50.984;5.822;2023-02-11T11:23:47;38.87;;;23.17;;
24443;SDS011;13346;50.984;5.822;2023-02-11T11:26:18;44.67;;;24.00;;
24443;SDS011;13346;50.984;5.822;2023-02-11T11:28:50;45.40;;;22.63;;
24443;SDS011;13346;50.984;5.822;2023-02-11T11:31:29;41.07;;;22.20;;
24443;SDS011;13346;50.984;5.822;2023-02-11T11:34:00;36.60;;;21.23;;
24443;SDS011;13346;50.984;5.822;2023-02-11T11:36:41;34.73;;;20.67;;
24443;SDS011;13346;50.984;5.822;2023-02-11T11:39:19;43.70;;;23.57;;
24443;SDS011;13346;50.984;5.822;2023-02-11T11:41:50;37.30;;;22.53;;
24443;SDS011;13346;50.984;5.822;2023-02-11T11:44:24;40.57;;;22.30;;
24443;SDS011;13346;50.984;5.822;2023-02-11T11:47:04;38.40;;;22.97;;
24443;SDS011;13346;50.984;5.822;2023-02-11T11:49:44;38.00;;;22.37;;
24443;SDS011;13346;50.984;5.822;2023-02-11T11:52:18;39.80;;;21.30;;
24443;SDS011;13346;50.984;5.822;2023-02-11T11:55:02;37.13;;;21.43;;
24443;SDS011;13346;50.984;5.822;2023-02-11T11:57:36;39.27;;;22.17;;
24443;SDS011;13346;50.984;5.822;2023-02-11T12:00:04;36.50;;;21.87;;
24443;SDS011;13346;50.984;5.822;2023-02-11T12:05:49;37.37;;;22.30;;
24443;SDS011;13346;50.984;5.822;2023-02-11T12:08:30;43.60;;;23.87;;
24443;SDS011;13346;50.984;5.822;2023-02-11T12:11:07;32.57;;;20.63;;
24443;SDS011;13346;50.984;5.822;2023-02-11T12:13:48;33.73;;;19.43;;
24443;SDS011;13346;50.984;5.822;2023-02-11T12:16:27;38.47;;;22.17;;
24443;SDS011;13346;50.984;5.822;2023-02-11T12:19:12;30.30;;;17.57;;
24443;SDS011;13346;50.984;5.822;2023-02-11T12:22:00;41.10;;;22.77;;
24443;SDS011;13346;50.984;5.822;2023-02-11T12:24:44;37.30;;;22.67;;
24443;SDS011;13346;50.984;5.822;2023-02-11T12:27:22;37.37;;;21.53;;
24443;SDS011;13346;50.984;5.822;2023-02-11T12:30:07;41.90;;;23.60;;
24443;SDS011;13346;50.984;5.822;2023-02-11T12:32:49;37.23;;;20.50;;
24443;SDS011;13346;50.984;5.822;2023-02-11T12:35:27;32.73;;;21.40;;
24443;SDS011;13346;50.984;5.822;2023-02-11T12:38:20;39.77;;;22.63;;
24443;SDS011;13346;50.984;5.822;2023-02-11T12:41:08;39.03;;;22.23;;
24443;SDS011;13346;50.984;5.822;2023-02-11T12:44:06;39.37;;;24.13;;
24443;SDS011;13346;50.984;5.822;2023-02-11T12:46:38;37.53;;;23.57;;
24443;SDS011;13346;50.984;5.822;2023-02-11T12:49:13;43.87;;;24.00;;
24443;SDS011;13346;50.984;5.822;2023-02-11T12:52:06;34.23;;;21.07;;
24443;SDS011;13346;50.984;5.822;2023-02-11T12:54:47;39.97;;;22.33;;
24443;SDS011;13346;50.984;5.822;2023-02-11T12:57:21;37.27;;;20.23;;
24443;SDS011;13346;50.984;5.822;2023-02-11T12:59:54;38.13;;;24.47;;
24443;SDS011;13346;50.984;5.822;2023-02-11T13:02:31;38.83;;;22.97;;
24443;SDS011;13346;50.984;5.822;2023-02-11T13:05:09;44.27;;;23.70;;
24443;SDS011;13346;50.984;5.822;2023-02-11T13:07:48;40.83;;;22.67;;
24443;SDS011;13346;50.984;5.822;2023-02-11T13:10:22;41.80;;;24.27;;
24443;SDS011;13346;50.984;5.822;2023-02-11T13:12:52;41.40;;;21.80;;
24443;SDS011;13346;50.984;5.822;2023-02-11T13:15:39;40.43;;;23.83;;
24443;SDS011;13346;50.984;5.822;2023-02-11T13:18:11;41.77;;;22.80;;
24443;SDS011;13346;50.984;5.822;2023-02-11T13:20:46;32.17;;;18.17;;
24443;SDS011;13346;50.984;5.822;2023-02-11T13:23:20;39.37;;;22.93;;
24443;SDS011;13346;50.984;5.822;2023-02-11T13:25:52;41.17;;;22.83;;
24443;SDS011;13346;50.984;5.822;2023-02-11T13:28:27;42.73;;;18.77;;
24443;SDS011;13346;50.984;5.822;2023-02-11T13:31:06;44.83;;;23.73;;
24443;SDS011;13346;50.984;5.822;2023-02-11T13:33:37;43.40;;;23.23;;
24443;SDS011;13346;50.984;5.822;2023-02-11T13:38:58;40.43;;;24.87;;
24443;SDS011;13346;50.984;5.822;2023-02-11T13:41:28;46.80;;;22.30;;
24443;SDS011;13346;50.984;5.822;2023-02-11T13:44:05;43.90;;;26.10;;
24443;SDS011;13346;50.984;5.822;2023-02-11T13:46:54;42.90;;;24.20;;
24443;SDS011;13346;50.984;5.822;2023-02-11T13:49:31;34.80;;;19.90;;
24443;SDS011;13346;50.984;5.822;2023-02-11T13:52:05;44.93;;;23.53;;
24443;SDS011;13346;50.984;5.822;2023-02-11T13:54:45;41.10;;;23.23;;
24443;SDS011;13346;50.984;5.822;2023-02-11T13:57:24;41.30;;;24.27;;
24443;SDS011;13346;50.984;5.822;2023-02-11T13:59:59;47.80;;;23.13;;
24443;SDS011;13346;50.984;5.822;2023-02-11T14:02:30;41.53;;;24.57;;
24443;SDS011;13346;50.984;5.822;2023-02-11T14:05:29;33.93;;;22.33;;
24443;SDS011;13346;50.984;5.822;2023-02-11T14:08:16;46.37;;;25.80;;
24443;SDS011;13346;50.984;5.822;2023-02-11T14:11:06;39.40;;;23.50;;
24443;SDS011;13346;50.984;5.822;2023-02-11T14:14:14;29.43;;;18.50;;
24443;SDS011;13346;50.984;5.822;2023-02-11T14:19:58;40.07;;;22.97;;
24443;SDS011;13346;50.984;5.822;2023-02-11T14:22:29;33.97;;;23.53;;
24443;SDS011;13346;50.984;5.822;2023-02-11T14:25:13;37.20;;;22.87;;
24443;SDS011;13346;50.984;5.822;2023-02-11T14:27:46;39.80;;;23.53;;
24443;SDS011;13346;50.984;5.822;2023-02-11T14:30:23;41.80;;;24.10;;
24443;SDS011;13346;50.984;5.822;2023-02-11T14:35:52;40.93;;;24.20;;
24443;SDS011;13346;50.984;5.822;2023-02-11T14:38:39;40.90;;;24.23;;
24443;SDS011;13346;50.984;5.822;2023-02-11T14:41:19;43.87;;;23.20;;
24443;SDS011;13346;50.984;5.822;2023-02-11T14:43:48;40.17;;;23.47;;
24443;SDS011;13346;50.984;5.822;2023-02-11T14:46:20;45.83;;;25.00;;
24443;SDS011;13346;50.984;5.822;2023-02-11T14:48:51;37.83;;;24.03;;
24443;SDS011;13346;50.984;5.822;2023-02-11T14:51:22;38.53;;;23.00;;
24443;SDS011;13346;50.984;5.822;2023-02-11T14:53:52;35.80;;;21.90;;
24443;SDS011;13346;50.984;5.822;2023-02-11T14:56:25;31.87;;;22.47;;
24443;SDS011;13346;50.984;5.822;2023-02-11T14:58:55;32.73;;;22.10;;
24443;SDS011;13346;50.984;5.822;2023-02-11T15:01:28;40.43;;;21.67;;
24443;SDS011;13346;50.984;5.822;2023-02-11T15:03:59;35.00;;;20.30;;
24443;SDS011;13346;50.984;5.822;2023-02-11T15:06:29;43.20;;;24.60;;